Depesze METAR lotnisk w Polsce

METAR – format kodowanego raportu o pogodzie używany w meteorologii lotniczej i prognozie pogody. METAR jest akronimem od ang. Meteorological Aerodrome Report. Typowy METAR zawiera informację o temperaturze, ciśnieniu, temperaturze punktu rosy, sile i kierunku wiatru, opadzie, pokrywie chmur, wysokości podstawy chmur, widzialności, lecz może zawierać też inne informacje (np. stan dróg startowych).

Warszawa-Okęcie (EPWA)

METAR = EPWA 271730Z 22003KT CAVOK 00/M04 Q1000 R33/2///95 NOSIG

STACJA......... EPWA - Warszawa-Okęcie (WAW)
POMIAR......... Thu Feb 27, 18:30 CET
WIATR.......... południowo-zachodni (SW) z prędkością 6 km/h
WIDZIALNOŚĆ.... powyżej 10 kilometrów
CHMURY......... bezchmurne niebo
TEMPERATURA.... 0°C
T.PUNKTU ROSY.. -4°C
WILGOTNOŚĆ..... 75%
T.ODCZUWALNA... -2°C
CIŚNIENIE...... 1000 hPa
CIŚN.BEZWZGL... 986 hPa
PAS STARTOWY... pas nr 33: woda na pasie, b/d pokrycia pasa, dobra przyczepność hamowania
PROGNOZA....... bez nagłych zmian w ciągu 2h

Sprawdź też: Prognoza pogody Warszawa

Warszawa-Modlin (EPMO)

METAR = EPMO 271730Z 22006KT CAVOK 02/M02 Q1000 =

STACJA......... EPMO - Warszawa-Modlin (WMI)
POMIAR......... Thu Feb 27, 18:30 CET
WIATR.......... południowo-zachodni (SW) z prędkością 11 km/h
WIDZIALNOŚĆ.... powyżej 10 kilometrów
CHMURY......... bezchmurne niebo
TEMPERATURA.... 2°C
T.PUNKTU ROSY.. -2°C
WILGOTNOŚĆ..... 75%
T.ODCZUWALNA... -1°C
CIŚNIENIE...... 1000 hPa
CIŚN.BEZWZGL... 987 hPa

Sprawdź też: Prognoza pogody Nowy Dwór Mazowiecki

Kraków-Balice (EPKK)

METAR = EPKK 271730Z 15002KT 9999 FEW023TCU 00/M00 Q1002

STACJA......... EPKK - Kraków-Balice (KRK)
POMIAR......... Thu Feb 27, 18:30 CET
WIATR.......... południowo południowo-wschodni (SSE) z prędkością 4 km/h
WIDZIALNOŚĆ.... powyżej 10 kilometrów
CHMURY......... zachmurzenie niewielkie (1/8-2/8)
TEMPERATURA.... 0°C
T.PUNKTU ROSY.. 0°C
WILGOTNOŚĆ..... 100%
CIŚNIENIE...... 1002 hPa
CIŚN.BEZWZGL... 972 hPa

Sprawdź też: Prognoza pogody Kraków

Łódź-Lublinek (EPLL)

METAR = EPLL 271730Z 22004KT 9999 FEW020 01/M01 Q1000

STACJA......... EPLL - Łódź-Lublinek (LCJ)
POMIAR......... Thu Feb 27, 18:30 CET
WIATR.......... południowo-zachodni (SW) z prędkością 7 km/h
WIDZIALNOŚĆ.... powyżej 10 kilometrów
CHMURY......... zachmurzenie niewielkie (1/8-2/8)
TEMPERATURA.... 1°C
T.PUNKTU ROSY.. -1°C
WILGOTNOŚĆ..... 87%
T.ODCZUWALNA... -1°C
CIŚNIENIE...... 1000 hPa
CIŚN.BEZWZGL... 977 hPa

Sprawdź też: Prognoza pogody Łódź

Wrocław-Strachowice (EPWR)

METAR = EPWR 271730Z 17005KT CAVOK 03/M04 Q1000

STACJA......... EPWR - Wrocław-Strachowice (WRO)
POMIAR......... Thu Feb 27, 18:30 CET
WIATR.......... południowy (S) z prędkością 9 km/h
WIDZIALNOŚĆ.... powyżej 10 kilometrów
CHMURY......... bezchmurne niebo
TEMPERATURA.... 3°C
T.PUNKTU ROSY.. -4°C
WILGOTNOŚĆ..... 60%
T.ODCZUWALNA... 0°C
CIŚNIENIE...... 1000 hPa
CIŚN.BEZWZGL... 985 hPa

Sprawdź też: Prognoza pogody Wrocław

Katowice-Pyrzowice (EPKT)

METAR = EPKT 271730Z 15006KT 5000 BR NSC M01/M02 Q1001

STACJA......... EPKT - Katowice-Pyrzowice (KTW)
POMIAR......... Thu Feb 27, 18:30 CET
WIATR.......... południowo południowo-wschodni (SSE) z prędkością 11 km/h
WIDZIALNOŚĆ.... 5000 metrów
WARUNKI........ zamglenie 
CHMURY......... brak istotnych chmur
TEMPERATURA.... -1°C
T.PUNKTU ROSY.. -2°C
WILGOTNOŚĆ..... 93%
T.ODCZUWALNA... -5°C
CIŚNIENIE...... 1001 hPa
CIŚN.BEZWZGL... 964 hPa

Sprawdź też: Prognoza pogody Katowice

Gdańsk (EPGD)

METAR = EPGD 271730Z 24003KT 180V280 9999 FEW028 SCT035 M00/M03 Q0997

STACJA......... EPGD - Gdańsk im. Lecha Wałęsy (GDN)
POMIAR......... Thu Feb 27, 18:30 CET
WIATR.......... zachodni południowo-zachodni (WSW) z prędkością 6 km/h
WIDZIALNOŚĆ.... powyżej 10 kilometrów
CHMURY......... zachmurzenie małe (3/8-4/8)
TEMPERATURA.... 0°C
T.PUNKTU ROSY.. -3°C
WILGOTNOŚĆ..... 80%
T.ODCZUWALNA... -2°C
CIŚNIENIE...... 997 hPa
CIŚN.BEZWZGL... 979 hPa

Sprawdź też: Prognoza pogody Gdańsk

Poznań-Ławica (EPPO)

METAR = EPPO 271730Z 10003KT 6000 NSC M02/M02 Q0999

STACJA......... EPPO - Poznań-Ławica (POZ)
POMIAR......... Thu Feb 27, 18:30 CET
WIATR.......... wschodni (E) z prędkością 6 km/h
WIDZIALNOŚĆ.... 6000 metrów
CHMURY......... brak istotnych chmur
TEMPERATURA.... -2°C
T.PUNKTU ROSY.. -2°C
WILGOTNOŚĆ..... 100%
T.ODCZUWALNA... -4°C
CIŚNIENIE...... 999 hPa
CIŚN.BEZWZGL... 987 hPa

Sprawdź też: Prognoza pogody Poznań

Rzeszów-Jasionka (EPRZ)

METAR = EPRZ 271730Z 23009KT CAVOK 01/M00 Q1003

STACJA......... EPRZ - Rzeszów-Jasionka (RZE)
POMIAR......... Thu Feb 27, 18:30 CET
WIATR.......... południowo-zachodni (SW) z prędkością 17 km/h
WIDZIALNOŚĆ.... powyżej 10 kilometrów
CHMURY......... bezchmurne niebo
TEMPERATURA.... 1°C
T.PUNKTU ROSY.. 0°C
WILGOTNOŚĆ..... 93%
T.ODCZUWALNA... -3°C
CIŚNIENIE...... 1003 hPa
CIŚN.BEZWZGL... 977 hPa

Sprawdź też: Prognoza pogody Rzeszów

Szczecin-Goleniów (EPSC)

METAR = EPSC 271730Z VRB02KT 9999 FEW024 SCT031 BKN036 01/01 Q0998

STACJA......... EPSC - Szczecin-Goleniów (SZZ)
POMIAR......... Thu Feb 27, 18:30 CET
WIATR.......... zmienny z prędkością 4 km/h
WIDZIALNOŚĆ.... powyżej 10 kilometrów
CHMURY......... zachmurzenie średnie (5/8-7/8)
TEMPERATURA.... 1°C
T.PUNKTU ROSY.. 1°C
WILGOTNOŚĆ..... 100%
CIŚNIENIE...... 998 hPa
CIŚN.BEZWZGL... 992 hPa

Sprawdź też: Prognoza pogody Szczecin

Lublin-Świdnik (EPLB)

METAR = EPLB 271730Z 23005KT 9999 FEW041 BKN049 00/M01 Q1001 =

STACJA......... EPLB - Lublin-Świdnik (LUZ)
POMIAR......... Thu Feb 27, 18:30 CET
WIATR.......... południowo-zachodni (SW) z prędkością 9 km/h
WIDZIALNOŚĆ.... powyżej 10 kilometrów
CHMURY......... zachmurzenie średnie (5/8-7/8)
TEMPERATURA.... 0°C
T.PUNKTU ROSY.. -1°C
WILGOTNOŚĆ..... 93%
T.ODCZUWALNA... -3°C
CIŚNIENIE...... 1001 hPa
CIŚN.BEZWZGL... 976 hPa

Sprawdź też: Prognoza pogody Lublin

Bydgoszcz-Szwederowo (EPBY)

METAR = EPBY 271730Z 22004KT 9999 SCT049 BKN055CB 02/M03 Q0999=

STACJA......... EPBY - Bydgoszcz-Szwederowo (BZG)
POMIAR......... Thu Feb 27, 18:30 CET
WIATR.......... południowo-zachodni (SW) z prędkością 7 km/h
WIDZIALNOŚĆ.... powyżej 10 kilometrów
CHMURY......... zachmurzenie średnie (5/8-7/8)
TEMPERATURA.... 2°C
T.PUNKTU ROSY.. -3°C
WILGOTNOŚĆ..... 70%
T.ODCZUWALNA... 0°C
CIŚNIENIE...... 999 hPa
CIŚN.BEZWZGL... 990 hPa

Sprawdź też: Prognoza pogody Bydgoszcz

Zielona Góra-Babimost (EPZG)

METAR = EPZG 271730Z 00000KT 9999 SCT030 BKN038 01/00 Q0999 =

STACJA......... EPZG - Zielona Góra-Babimost (IEG)
POMIAR......... Thu Feb 27, 18:30 CET
WIATR.......... bezwietrznie
WIDZIALNOŚĆ.... powyżej 10 kilometrów
CHMURY......... zachmurzenie średnie (5/8-7/8)
TEMPERATURA.... 1°C
T.PUNKTU ROSY.. 0°C
WILGOTNOŚĆ..... 93%
CIŚNIENIE...... 999 hPa
CIŚN.BEZWZGL... 992 hPa

Sprawdź też: Prognoza pogody Zielona Góra

Szymany Olsztyn-Mazury (EPSY)

METAR = EPSY 271730Z 20005KT CAVOK M02/M02 Q0998=

STACJA......... EPSY - Olsztyn-Mazury (SZY)
POMIAR......... Thu Feb 27, 18:30 CET
WIATR.......... południowo południowo-zachodni  (SSW) z prędkością 9 km/h
WIDZIALNOŚĆ.... powyżej 10 kilometrów
CHMURY......... bezchmurne niebo
TEMPERATURA.... -2°C
T.PUNKTU ROSY.. -2°C
WILGOTNOŚĆ..... 100%
T.ODCZUWALNA... -6°C
CIŚNIENIE...... 998 hPa
CIŚN.BEZWZGL... 981 hPa

Sprawdź też: Prognoza pogody Olsztyn